Terminal Aerodrome Forecast
Issued by NWS Sioux Falls, SD

Home | Current Version | Previous Version | Graphics & Text | Print | Product List | Glossary Off
Versions: 1 2 3 4 5 6 7 8 9 10 11 12

000
FTUS43 KFSD 301122
TAFHON
TAF
KHON 301122Z 3012/0112 03010KT P6SM BKN200
     FM301700 03021G29KT P6SM BKN150
     FM010600 01016G24KT P6SM OVC050=

USA.gov is the U.S. government's official web portal to all federal, state and local government web resources and services.